Hondo, Texas
Current Conditions -  °F | °C
As of 8:51 AM on Tuesday 21 Oct 2014 (Local Time) from KHDO Reporting Station
Scattered Clouds Scattered Clouds  
Wind Chill: 17°   Ceiling: Unl
Heat Index: 17°   Visibility: 10mi
Dew Point: 14°   Wind: 8mph
Humidity: 84%   Direction: 40°NE
Pressure: 30.09"   Gusts: NA
Location:  29.35°N, 99.14°W
Report Text: KHDO 211351Z AUTO 04007KT 10SM SCT060 17/14 A3009 RMK AO2 SLP176 T01720144
Loading
Personal Weather Stations






























Interactive Weather Map
Tropical Storm Tracking
New forecast layout! Learn more

10-Day Weather Forecast

Advertisements
Track Severe Weather on mobile